Terminal Aerodrome Forecast
Issued by NWS

Home | Current Version | Previous Version | Text Only | Print | Product List | Glossary On
Versions: 1 2 3 4 5 6 7 8 9 10 11 12 13 14 15 16 17 18 19 20 21 22 23 24 25
000
FTUS46 KSEW 062300
TAFSEA
TAF
KSEA 062320Z 0700/0806 34009KT P6SM SCT050 SCT200
     FM070400 04006KT P6SM SKC
     FM070900 VRB03KT P6SM SKC
     FM071800 34012KT P6SM SKC
     FM080400 04006KT P6SM SKC=

USA.gov is the U.S. government's official web portal to all federal, state and local government web resources and services.